Maersk Damietta — A8OU4 — position and weather

sailwx.info

Track history (hours):
 
Tides and Currents Weather Stations Pressure Air Temp Water Temp Dewpoint Dewpoint Depression Visibility Wind Speed Wind Dir Waves Ship Positions

Maersk Damietta

Last reported at 2016-Feb-09 17:21 UTC. Time now 2016-Feb-09 20:35 UTC.
Position N 38°51' E 121°51'.

Length 293 m; draft 10.4 m.

Type: Cargo ship. MMSI: 636091506.

Date/timePositionNaut miles runAvg speedWind from/ knotsBaromVisibWave heightAir tempDewpointWater temp
2016-Feb-09 17:21N 38°51' E 121°51'1114.0
2016-Feb-09 16:33N 38°44' E 121°40'1313.0
2016-Feb-09 15:34N 38°37' E 121°26'1212.2
2016-Feb-09 14:33N 38°29' E 121°14'12912.2
2016-Feb-09 04:00N 38°48' E 118°30'2710.0 270 / 151024.010.8 1.0 7.0-4.5 1.0
2016-Feb-09 01:17N 38°57' E 117°57'811.2
2016-Feb-09 00:34N 38°59' E 117°47'1 0.5
2016-Feb-08 23:30N 38°60' E 117°47'0 0.0
2016-Feb-08 22:24N 38°60' E 117°47'0 0.0
2016-Feb-08 21:30N 38°60' E 117°47'0 0.0
2016-Feb-08 20:24N 38°60' E 117°47'0 0.0
2016-Feb-08 19:30N 38°60' E 117°47'0 0.0
2016-Feb-08 18:30N 38°60' E 117°47'0 0.0
2016-Feb-08 17:30N 38°60' E 117°47'0 0.0
2016-Feb-08 16:18N 38°60' E 117°47'0 0.0
2016-Feb-08 15:24N 38°60' E 117°47'0 0.0
2016-Feb-08 14:30N 38°60' E 117°47'0 0.0
2016-Feb-08 13:30N 38°60' E 117°47'0 0.0
2016-Feb-08 12:30N 38°60' E 117°47'0 0.0
2016-Feb-08 11:30N 38°60' E 117°47'0 0.0
2016-Feb-08 10:30N 38°60' E 117°47'0 0.0
2016-Feb-08 09:24N 38°60' E 117°47'0 0.1
2016-Feb-08 08:30N 38°60' E 117°47'0 0.0
2016-Feb-08 07:10N 38°60' E 117°47'0 0.0
2016-Feb-08 06:28N 38°60' E 117°47'0 0.0
2016-Feb-08 05:28N 38°60' E 117°47'0 0.0
2016-Feb-08 04:28N 38°60' E 117°47'0 0.0
2016-Feb-08 03:22N 38°60' E 117°47'0 0.6
2016-Feb-08 02:33N 38°60' E 117°47'10 9.9
2016-Feb-08 01:33N 38°56' E 117°59'14511.7
2016-Feb-07 13:07N 38°33' E 121°03'813.2
2016-Feb-07 12:31N 38°29' E 121°12'1312.7
2016-Feb-07 11:30N 38°24' E 121°27'1312.4
2016-Feb-07 10:28N 38°17' E 121°41'5614.2
2016-Feb-07 06:33N 37°43' E 122°36'3312.7
2016-Feb-07 04:00N 37°12' E 122°48'613.6 030 / 121025.010.8 1.0 6.0-2.3 3.0
2016-Feb-07 03:33N 37°07' E 122°51'1212.5
2016-Feb-07 02:33N 36°56' E 122°44'1313.3
2016-Feb-07 01:33N 36°46' E 122°33'1514.2
2016-Feb-07 00:29N 36°37' E 122°17'18 0.6
2016-Feb-05 17:09N 36°34' E 122°39'711.7
2016-Feb-05 16:33N 36°41' E 122°41'1212.0
2016-Feb-05 15:33N 36°53' E 122°44'1312.6
2016-Feb-05 14:33N 37°05' E 122°47'1313.2
2016-Feb-05 13:32N 37°19' E 122°46'1212.7
2016-Feb-05 12:33N 37°30' E 122°41'1212.4
2016-Feb-05 11:33N 37°39' E 122°30'1511.8
2016-Feb-05 10:18N 37°49' E 122°16'6911.0
2016-Feb-05 04:00N 38°24' E 121°00'14714.1 080 / 281026.010.8 3.5 4.0-1.6 6.0
2016-Feb-04 17:31N 38°57' E 117°56'8 7.9
2016-Feb-04 16:33N 38°59' E 117°47'0 0.0
2016-Feb-04 15:33N 38°59' E 117°47'0 0.0
2016-Feb-04 14:09N 38°59' E 117°47'0 0.0
2016-Feb-04 13:33N 38°59' E 117°47'0 0.0
2016-Feb-04 12:33N 38°59' E 117°47'0 0.0
2016-Feb-04 11:33N 38°59' E 117°47'0 0.0
2016-Feb-04 10:33N 38°59' E 117°47'0 0.0
2016-Feb-04 08:27N 38°59' E 117°47'0 0.0
2016-Feb-04 07:27N 38°59' E 117°47'0 0.0
2016-Feb-04 06:21N 38°59' E 117°47'0 0.0
2016-Feb-04 05:33N 38°59' E 117°47'0 0.0
2016-Feb-04 04:27N 38°59' E 117°47'0 0.0
2016-Feb-04 03:03N 38°59' E 117°47'0 0.0
2016-Feb-04 02:27N 38°59' E 117°47'0 0.0
2016-Feb-04 01:15N 38°59' E 117°47'0 0.0
2016-Feb-04 00:31N 38°59' E 117°47'0 0.0
2016-Feb-03 23:21N 38°59' E 117°47'0 0.0
2016-Feb-03 22:29N 38°59' E 117°47'0 0.0
2016-Feb-03 21:24N 38°59' E 117°47'0 0.0
2016-Feb-03 20:24N 38°59' E 117°47'0 0.0
2016-Feb-03 19:30N 38°59' E 117°47'2 2.0
2016-Feb-03 18:33N 38°58' E 117°49'1010.4
2016-Feb-03 17:33N 38°56' E 118°02'17012.1
2016-Feb-03 03:32N 38°20' E 121°34'  
2016-Jan-31 20:07N 22°55' E 119°49'1119.7
2016-Jan-31 19:33N 22°44' E 119°47'  
Track history (hours):
 
Tides and Currents Weather Stations Pressure Air Temp Water Temp Dewpoint Dewpoint Depression Visibility Wind Speed Wind Dir Waves Ship Positions

Maersk Damietta

Last reported at 2016-Feb-09 17:21 UTC. Time now 2016-Feb-09 20:35 UTC.
Position N 38°51' E 121°51'.

Length 293 m; draft 10.4 m.

Type: Cargo ship. MMSI: 636091506.

Date/timePositionNaut miles runAvg speedWind from/ knotsBaromVisibWave heightAir tempDewpointWater temp
2016-Feb-09 17:21N 38°51' E 121°51'1114.0
2016-Feb-09 16:33N 38°44' E 121°40'1313.0
2016-Feb-09 15:34N 38°37' E 121°26'1212.2
2016-Feb-09 14:33N 38°29' E 121°14'12912.2
2016-Feb-09 04:00N 38°48' E 118°30'2710.0 270 / 151024.010.8 1.0 7.0-4.5 1.0
2016-Feb-09 01:17N 38°57' E 117°57'811.2
2016-Feb-09 00:34N 38°59' E 117°47'1 0.5
2016-Feb-08 23:30N 38°60' E 117°47'0 0.0
2016-Feb-08 22:24N 38°60' E 117°47'0 0.0
2016-Feb-08 21:30N 38°60' E 117°47'0 0.0
2016-Feb-08 20:24N 38°60' E 117°47'0 0.0
2016-Feb-08 19:30N 38°60' E 117°47'0 0.0
2016-Feb-08 18:30N 38°60' E 117°47'0 0.0
2016-Feb-08 17:30N 38°60' E 117°47'0 0.0
2016-Feb-08 16:18N 38°60' E 117°47'0 0.0
2016-Feb-08 15:24N 38°60' E 117°47'0 0.0
2016-Feb-08 14:30N 38°60' E 117°47'0 0.0
2016-Feb-08 13:30N 38°60' E 117°47'0 0.0
2016-Feb-08 12:30N 38°60' E 117°47'0 0.0
2016-Feb-08 11:30N 38°60' E 117°47'0 0.0
2016-Feb-08 10:30N 38°60' E 117°47'0 0.0
2016-Feb-08 09:24N 38°60' E 117°47'0 0.1
2016-Feb-08 08:30N 38°60' E 117°47'0 0.0
2016-Feb-08 07:10N 38°60' E 117°47'0 0.0
2016-Feb-08 06:28N 38°60' E 117°47'0 0.0
2016-Feb-08 05:28N 38°60' E 117°47'0 0.0
2016-Feb-08 04:28N 38°60' E 117°47'0 0.0
2016-Feb-08 03:22N 38°60' E 117°47'0 0.6
2016-Feb-08 02:33N 38°60' E 117°47'10 9.9
2016-Feb-08 01:33N 38°56' E 117°59'14511.7
2016-Feb-07 13:07N 38°33' E 121°03'813.2
2016-Feb-07 12:31N 38°29' E 121°12'1312.7
2016-Feb-07 11:30N 38°24' E 121°27'1312.4
2016-Feb-07 10:28N 38°17' E 121°41'5614.2
2016-Feb-07 06:33N 37°43' E 122°36'3312.7
2016-Feb-07 04:00N 37°12' E 122°48'613.6 030 / 121025.010.8 1.0 6.0-2.3 3.0
2016-Feb-07 03:33N 37°07' E 122°51'1212.5
2016-Feb-07 02:33N 36°56' E 122°44'1313.3
2016-Feb-07 01:33N 36°46' E 122°33'1514.2
2016-Feb-07 00:29N 36°37' E 122°17'18 0.6
2016-Feb-05 17:09N 36°34' E 122°39'711.7
2016-Feb-05 16:33N 36°41' E 122°41'1212.0
2016-Feb-05 15:33N 36°53' E 122°44'1312.6
2016-Feb-05 14:33N 37°05' E 122°47'1313.2
2016-Feb-05 13:32N 37°19' E 122°46'1212.7
2016-Feb-05 12:33N 37°30' E 122°41'1212.4
2016-Feb-05 11:33N 37°39' E 122°30'1511.8
2016-Feb-05 10:18N 37°49' E 122°16'6911.0
2016-Feb-05 04:00N 38°24' E 121°00'14714.1 080 / 281026.010.8 3.5 4.0-1.6 6.0
2016-Feb-04 17:31N 38°57' E 117°56'8 7.9
2016-Feb-04 16:33N 38°59' E 117°47'0 0.0
2016-Feb-04 15:33N 38°59' E 117°47'0 0.0
2016-Feb-04 14:09N 38°59' E 117°47'0 0.0
2016-Feb-04 13:33N 38°59' E 117°47'0 0.0
2016-Feb-04 12:33N 38°59' E 117°47'0 0.0
2016-Feb-04 11:33N 38°59' E 117°47'0 0.0
2016-Feb-04 10:33N 38°59' E 117°47'0 0.0
2016-Feb-04 08:27N 38°59' E 117°47'0 0.0
2016-Feb-04 07:27N 38°59' E 117°47'0 0.0
2016-Feb-04 06:21N 38°59' E 117°47'0 0.0
2016-Feb-04 05:33N 38°59' E 117°47'0 0.0
2016-Feb-04 04:27N 38°59' E 117°47'0 0.0
2016-Feb-04 03:03N 38°59' E 117°47'0 0.0
2016-Feb-04 02:27N 38°59' E 117°47'0 0.0
2016-Feb-04 01:15N 38°59' E 117°47'0 0.0
2016-Feb-04 00:31N 38°59' E 117°47'0 0.0
2016-Feb-03 23:21N 38°59' E 117°47'0 0.0
2016-Feb-03 22:29N 38°59' E 117°47'0 0.0
2016-Feb-03 21:24N 38°59' E 117°47'0 0.0
2016-Feb-03 20:24N 38°59' E 117°47'0 0.0
2016-Feb-03 19:30N 38°59' E 117°47'2 2.0
2016-Feb-03 18:33N 38°58' E 117°49'1010.4
2016-Feb-03 17:33N 38°56' E 118°02'17012.1
2016-Feb-03 03:32N 38°20' E 121°34'  
2016-Jan-31 20:07N 22°55' E 119°49'1119.7
2016-Jan-31 19:33N 22°44' E 119°47'  

Dump ship's entire track history